Detall de PIREP

Printer-friendly versionPDF version

[2013/07/28 05:19:00]
Flight IATA:CT2111
Pilot Number:041
Company ICAO:CAT
Aircraft Type:A343/E
PAX:199
Departing Airport: LEST
Destination Airport: LEVC
Alternate Airport:LEPA
Online: VATSIM
Route:FORNO UN733 ZMR UL155 KALMA UH100 CJN UN733 CLS
Flight Level:F340
No Slew and time accel
No pause
Crash detect
Detect pilot in Cockpit between each 30 and 45 minutes
05:19 Zero fuel Weight: 391579 Lbs, Fuel Weight: 37063 Lbs
05:19 VATSIM:LEST 280500Z 21008KT 150V250 9999 BKN009 15/15 Q1011 TEMPO 4000 SHRA SCT025TCU
05:19 VATSIM:LEVC 280500Z 29008KT CAVOK 27/11 Q1011 NOSIG
05:20 VOICE CATALONIAN
05:22 Parking Brakes off
05:29 Take-off
05:29 Take off Weight: 427305 Lbs
05:29 Wind: 229º @ 009 Knots Heading: 166º
05:29 POS N42º 53´ 25´´ W008º 24´ 47´´
05:29 Gear Up: 198 Knots
05:29 Flaps:3 at 198 Knots
05:30 Flaps:1 at 210 Knots
05:30 Flaps:2 at 211 Knots
05:30 Flaps:3 at 214 Knots
05:30 Flaps:2 at 216 Knots
05:30 Flaps:3 at 219 Knots
05:30 Flaps:2 at 220 Knots
05:30 Flaps:1 at 226 Knots
05:30 Flaps:0 at 231 Knots
05:44 Wind:249º@056 Knots Heading: 129º Ground Speed: 489 Knots Altitude 31584 ft
05:45 TOC
05:45 Fuel Weight: 28913 Lb
05:59 Wind:231º@065 Knots Heading: 145º Ground Speed: 478 Knots Altitude 34078 ft
06:13 TOD
06:13 Fuel Weight: 22070 Lb
06:14 Wind:221º@094 Knots Heading: 117º Ground Speed: 481 Knots Altitude 32263 ft
06:29 Wind:272º@013 Knots Heading: 134º Ground Speed: 287 Knots Altitude 7142 ft
06:34 Flaps:1 at 227 Knots
06:35 Flaps:2 at 192 Knots
06:35 Flaps:3 at 171 Knots
06:36 Flaps:4 at 167 Knots
06:36 Gear Down: 158 Knots
06:36 Flaps:5 at 150 Knots
06:39 TouchDown:Rate -188 ft/min Speed: 135 Knots
06:39 VATSIM:LEVC 280600Z 28007KT CAVOK 27/11 Q1012 NOSIG
06:39 Land
06:39 Wind:283º@006 Knots
06:39 Heading: 300º
06:39 Flight Duration: 01:10
06:39 Landing Weight: 411497 Lbs
06:39 POS N39º 29´ 24´´ W000º 29´ 02´´
06:41 Parking brakes on
06:41 Block to Block Duration: 01:19
06:41 Final Fuel: 19552 Lbls
06:41 Spent Fuel: 17511 Lbls
06:41 Flight Length: 466 NM
06:41 TOD Land Length: 127 NM

Exportar CSV

Powered by Drupal - Modified by Danger4k